sensor_id;sensor_type;location;lat;lon;timestamp;temperature;humidity
9057;DHT22;4563;54.756;9.400;2023-05-29T00:00:13;14.90;53.80
9057;DHT22;4563;54.756;9.400;2023-05-29T00:02:41;14.90;53.20
9057;DHT22;4563;54.756;9.400;2023-05-29T00:05:11;14.90;53.30
9057;DHT22;4563;54.756;9.400;2023-05-29T00:07:39;14.80;53.30
9057;DHT22;4563;54.756;9.400;2023-05-29T00:10:07;14.80;53.40
9057;DHT22;4563;54.756;9.400;2023-05-29T00:12:35;14.80;53.40
9057;DHT22;4563;54.756;9.400;2023-05-29T00:15:03;14.80;53.40
9057;DHT22;4563;54.756;9.400;2023-05-29T00:17:30;14.80;53.50
9057;DHT22;4563;54.756;9.400;2023-05-29T00:19:57;14.70;53.40
9057;DHT22;4563;54.756;9.400;2023-05-29T00:22:25;14.70;53.50
9057;DHT22;4563;54.756;9.400;2023-05-29T00:24:52;14.70;53.60
9057;DHT22;4563;54.756;9.400;2023-05-29T00:27:19;14.60;53.60
9057;DHT22;4563;54.756;9.400;2023-05-29T00:29:46;14.60;53.60
9057;DHT22;4563;54.756;9.400;2023-05-29T00:32:13;14.60;53.70
9057;DHT22;4563;54.756;9.400;2023-05-29T00:34:40;14.60;53.70
9057;DHT22;4563;54.756;9.400;2023-05-29T00:37:07;14.50;53.70
9057;DHT22;4563;54.756;9.400;2023-05-29T00:39:36;14.50;53.70
9057;DHT22;4563;54.756;9.400;2023-05-29T00:42:03;14.50;53.80
9057;DHT22;4563;54.756;9.400;2023-05-29T00:44:30;14.50;53.90
9057;DHT22;4563;54.756;9.400;2023-05-29T00:46:57;14.50;53.90
9057;DHT22;4563;54.756;9.400;2023-05-29T00:49:24;14.40;53.90
9057;DHT22;4563;54.756;9.400;2023-05-29T00:51:52;14.40;54.00
9057;DHT22;4563;54.756;9.400;2023-05-29T00:54:23;14.40;54.00
9057;DHT22;4563;54.756;9.400;2023-05-29T00:56:54;14.40;54.00
9057;DHT22;4563;54.756;9.400;2023-05-29T00:59:21;14.30;54.00
9057;DHT22;4563;54.756;9.400;2023-05-29T01:01:49;14.30;54.00
9057;DHT22;4563;54.756;9.400;2023-05-29T01:04:17;14.20;54.00
9057;DHT22;4563;54.756;9.400;2023-05-29T01:06:44;14.20;54.00
9057;DHT22;4563;54.756;9.400;2023-05-29T01:09:11;14.20;54.10
9057;DHT22;4563;54.756;9.400;2023-05-29T01:11:45;14.20;54.10
9057;DHT22;4563;54.756;9.400;2023-05-29T01:14:21;14.10;54.90
9057;DHT22;4563;54.756;9.400;2023-05-29T01:16:55;14.10;54.30
9057;DHT22;4563;54.756;9.400;2023-05-29T01:19:43;14.10;54.40
9057;DHT22;4563;54.756;9.400;2023-05-29T01:22:19;14.10;54.60
9057;DHT22;4563;54.756;9.400;2023-05-29T01:24:56;14.00;54.40
9057;DHT22;4563;54.756;9.400;2023-05-29T01:27:27;14.00;54.40
9057;DHT22;4563;54.756;9.400;2023-05-29T01:29:56;14.00;54.40
9057;DHT22;4563;54.756;9.400;2023-05-29T01:32:27;14.00;54.40
9057;DHT22;4563;54.756;9.400;2023-05-29T01:34:55;14.00;54.50
9057;DHT22;4563;54.756;9.400;2023-05-29T01:37:22;13.90;54.40
9057;DHT22;4563;54.756;9.400;2023-05-29T01:39:49;13.90;54.50
9057;DHT22;4563;54.756;9.400;2023-05-29T01:42:16;13.90;54.60
9057;DHT22;4563;54.756;9.400;2023-05-29T01:44:48;13.90;54.60
9057;DHT22;4563;54.756;9.400;2023-05-29T01:47:18;13.90;54.70
9057;DHT22;4563;54.756;9.400;2023-05-29T01:49:47;13.80;54.70
9057;DHT22;4563;54.756;9.400;2023-05-29T01:52:16;13.80;54.80
9057;DHT22;4563;54.756;9.400;2023-05-29T01:54:48;13.80;54.80
9057;DHT22;4563;54.756;9.400;2023-05-29T01:57:16;13.70;54.70
9057;DHT22;4563;54.756;9.400;2023-05-29T01:59:48;13.70;54.70
9057;DHT22;4563;54.756;9.400;2023-05-29T02:02:16;13.70;54.70
9057;DHT22;4563;54.756;9.400;2023-05-29T02:04:43;13.70;54.70
9057;DHT22;4563;54.756;9.400;2023-05-29T02:07:10;13.70;54.70
9057;DHT22;4563;54.756;9.400;2023-05-29T02:09:38;13.70;54.70
9057;DHT22;4563;54.756;9.400;2023-05-29T02:12:06;13.60;54.70
9057;DHT22;4563;54.756;9.400;2023-05-29T02:14:34;13.60;54.80
9057;DHT22;4563;54.756;9.400;2023-05-29T02:17:06;13.60;54.80
9057;DHT22;4563;54.756;9.400;2023-05-29T02:19:35;13.60;55.00
9057;DHT22;4563;54.756;9.400;2023-05-29T02:22:03;13.60;55.00
9057;DHT22;4563;54.756;9.400;2023-05-29T02:24:31;13.50;54.90
9057;DHT22;4563;54.756;9.400;2023-05-29T02:26:58;13.60;55.00
9057;DHT22;4563;54.756;9.400;2023-05-29T02:29:25;13.50;54.90
9057;DHT22;4563;54.756;9.400;2023-05-29T02:31:53;13.50;55.00
9057;DHT22;4563;54.756;9.400;2023-05-29T02:34:22;13.50;55.00
9057;DHT22;4563;54.756;9.400;2023-05-29T02:36:51;13.50;55.00
9057;DHT22;4563;54.756;9.400;2023-05-29T02:39:19;13.50;55.10
9057;DHT22;4563;54.756;9.400;2023-05-29T02:41:46;13.50;55.10
9057;DHT22;4563;54.756;9.400;2023-05-29T02:44:13;13.50;55.10
9057;DHT22;4563;54.756;9.400;2023-05-29T02:46:40;13.40;55.10
9057;DHT22;4563;54.756;9.400;2023-05-29T02:49:08;13.40;55.10
9057;DHT22;4563;54.756;9.400;2023-05-29T02:51:41;13.40;55.20
9057;DHT22;4563;54.756;9.400;2023-05-29T02:54:08;13.40;55.30
9057;DHT22;4563;54.756;9.400;2023-05-29T02:56:37;13.30;55.10
9057;DHT22;4563;54.756;9.400;2023-05-29T02:59:04;13.30;55.10
9057;DHT22;4563;54.756;9.400;2023-05-29T03:01:31;13.30;55.20
9057;DHT22;4563;54.756;9.400;2023-05-29T03:03:59;13.30;55.30
9057;DHT22;4563;54.756;9.400;2023-05-29T03:06:27;13.30;55.20
9057;DHT22;4563;54.756;9.400;2023-05-29T03:08:55;13.30;55.30
9057;DHT22;4563;54.756;9.400;2023-05-29T03:11:25;13.30;55.30
9057;DHT22;4563;54.756;9.400;2023-05-29T03:13:52;13.30;55.40
9057;DHT22;4563;54.756;9.400;2023-05-29T03:16:21;13.20;55.30
9057;DHT22;4563;54.756;9.400;2023-05-29T03:18:47;13.30;55.40
9057;DHT22;4563;54.756;9.400;2023-05-29T03:21:16;13.20;55.50
9057;DHT22;4563;54.756;9.400;2023-05-29T03:23:43;13.20;55.50
9057;DHT22;4563;54.756;9.400;2023-05-29T03:26:11;13.20;55.50
9057;DHT22;4563;54.756;9.400;2023-05-29T03:28:41;13.20;55.50
9057;DHT22;4563;54.756;9.400;2023-05-29T03:31:08;13.20;55.60
9057;DHT22;4563;54.756;9.400;2023-05-29T03:33:35;13.20;55.60
9057;DHT22;4563;54.756;9.400;2023-05-29T03:36:03;13.20;55.70
9057;DHT22;4563;54.756;9.400;2023-05-29T03:38:29;13.20;55.70
9057;DHT22;4563;54.756;9.400;2023-05-29T03:40:57;13.20;55.70
9057;DHT22;4563;54.756;9.400;2023-05-29T03:43:26;13.10;55.70
9057;DHT22;4563;54.756;9.400;2023-05-29T03:45:54;13.20;55.80
9057;DHT22;4563;54.756;9.400;2023-05-29T03:48:21;13.20;55.90
9057;DHT22;4563;54.756;9.400;2023-05-29T03:50:50;13.20;55.90
9057;DHT22;4563;54.756;9.400;2023-05-29T03:53:17;13.10;55.90
9057;DHT22;4563;54.756;9.400;2023-05-29T03:55:44;13.20;56.00
9057;DHT22;4563;54.756;9.400;2023-05-29T03:58:11;13.10;55.90
9057;DHT22;4563;54.756;9.400;2023-05-29T04:00:47;13.20;56.00
9057;DHT22;4563;54.756;9.400;2023-05-29T04:03:14;13.10;56.00
9057;DHT22;4563;54.756;9.400;2023-05-29T04:05:41;13.20;56.20
9057;DHT22;4563;54.756;9.400;2023-05-29T04:08:08;13.10;56.10
9057;DHT22;4563;54.756;9.400;2023-05-29T04:10:36;13.20;56.30
9057;DHT22;4563;54.756;9.400;2023-05-29T04:13:03;13.20;56.30
9057;DHT22;4563;54.756;9.400;2023-05-29T04:15:30;13.20;56.40
9057;DHT22;4563;54.756;9.400;2023-05-29T04:18:00;13.20;56.40
9057;DHT22;4563;54.756;9.400;2023-05-29T04:20:27;13.20;56.40
9057;DHT22;4563;54.756;9.400;2023-05-29T04:22:54;13.20;56.40
9057;DHT22;4563;54.756;9.400;2023-05-29T04:25:20;13.20;56.40
9057;DHT22;4563;54.756;9.400;2023-05-29T04:27:48;13.20;56.50
9057;DHT22;4563;54.756;9.400;2023-05-29T04:30:15;13.20;56.50
9057;DHT22;4563;54.756;9.400;2023-05-29T04:32:43;13.30;56.70
9057;DHT22;4563;54.756;9.400;2023-05-29T04:35:16;13.20;56.60
9057;DHT22;4563;54.756;9.400;2023-05-29T04:37:44;13.30;56.70
9057;DHT22;4563;54.756;9.400;2023-05-29T04:40:11;13.30;56.80
9057;DHT22;4563;54.756;9.400;2023-05-29T04:42:43;13.30;56.80
9057;DHT22;4563;54.756;9.400;2023-05-29T04:45:11;13.30;56.80
9057;DHT22;4563;54.756;9.400;2023-05-29T04:47:38;13.30;56.80
9057;DHT22;4563;54.756;9.400;2023-05-29T04:50:09;13.30;56.90
9057;DHT22;4563;54.756;9.400;2023-05-29T04:52:38;13.30;57.00
9057;DHT22;4563;54.756;9.400;2023-05-29T04:55:05;13.40;57.10
9057;DHT22;4563;54.756;9.400;2023-05-29T04:57:33;13.40;57.10
9057;DHT22;4563;54.756;9.400;2023-05-29T05:00:01;13.40;57.10
9057;DHT22;4563;54.756;9.400;2023-05-29T05:02:33;13.40;57.20
9057;DHT22;4563;54.756;9.400;2023-05-29T05:05:01;13.50;57.30
9057;DHT22;4563;54.756;9.400;2023-05-29T05:07:29;13.50;57.40
9057;DHT22;4563;54.756;9.400;2023-05-29T05:09:59;13.50;57.30
9057;DHT22;4563;54.756;9.400;2023-05-29T05:12:25;13.50;57.30
9057;DHT22;4563;54.756;9.400;2023-05-29T05:14:52;13.60;57.50
9057;DHT22;4563;54.756;9.400;2023-05-29T05:17:19;13.60;57.50
9057;DHT22;4563;54.756;9.400;2023-05-29T05:19:47;13.70;57.60
9057;DHT22;4563;54.756;9.400;2023-05-29T05:22:14;13.70;57.70
9057;DHT22;4563;54.756;9.400;2023-05-29T05:24:41;13.70;57.70
9057;DHT22;4563;54.756;9.400;2023-05-29T05:27:10;13.80;57.80
9057;DHT22;4563;54.756;9.400;2023-05-29T05:29:36;13.80;57.90
9057;DHT22;4563;54.756;9.400;2023-05-29T05:32:04;13.90;57.90
9057;DHT22;4563;54.756;9.400;2023-05-29T05:34:32;13.90;58.00
9057;DHT22;4563;54.756;9.400;2023-05-29T05:36:59;14.00;58.00
9057;DHT22;4563;54.756;9.400;2023-05-29T05:39:25;14.00;58.00
9057;DHT22;4563;54.756;9.400;2023-05-29T05:41:52;14.10;58.20
9057;DHT22;4563;54.756;9.400;2023-05-29T05:44:21;14.20;58.20
9057;DHT22;4563;54.756;9.400;2023-05-29T05:46:47;14.20;58.20
9057;DHT22;4563;54.756;9.400;2023-05-29T05:49:14;14.30;58.30
9057;DHT22;4563;54.756;9.400;2023-05-29T05:51:41;14.30;58.30
9057;DHT22;4563;54.756;9.400;2023-05-29T05:54:08;14.30;58.30
9057;DHT22;4563;54.756;9.400;2023-05-29T05:56:35;14.40;58.40
9057;DHT22;4563;54.756;9.400;2023-05-29T05:59:01;14.50;58.60
9057;DHT22;4563;54.756;9.400;2023-05-29T06:01:29;14.60;58.70
9057;DHT22;4563;54.756;9.400;2023-05-29T06:03:56;14.60;58.90
9057;DHT22;4563;54.756;9.400;2023-05-29T06:06:24;14.70;59.00
9057;DHT22;4563;54.756;9.400;2023-05-29T06:08:51;14.80;59.00
9057;DHT22;4563;54.756;9.400;2023-05-29T06:11:17;14.90;58.90
9057;DHT22;4563;54.756;9.400;2023-05-29T06:13:44;15.00;58.80
9057;DHT22;4563;54.756;9.400;2023-05-29T06:16:11;15.10;58.70
9057;DHT22;4563;54.756;9.400;2023-05-29T06:18:39;15.20;58.60
9057;DHT22;4563;54.756;9.400;2023-05-29T06:21:06;15.30;58.50
9057;DHT22;4563;54.756;9.400;2023-05-29T06:23:35;15.40;58.50
9057;DHT22;4563;54.756;9.400;2023-05-29T06:26:02;15.50;58.30
9057;DHT22;4563;54.756;9.400;2023-05-29T06:28:29;15.60;58.20
9057;DHT22;4563;54.756;9.400;2023-05-29T06:30:56;15.70;58.00
9057;DHT22;4563;54.756;9.400;2023-05-29T06:33:23;15.70;57.80
9057;DHT22;4563;54.756;9.400;2023-05-29T06:35:52;15.90;57.80
9057;DHT22;4563;54.756;9.400;2023-05-29T06:38:19;15.90;57.60
9057;DHT22;4563;54.756;9.400;2023-05-29T06:40:45;16.00;57.50
9057;DHT22;4563;54.756;9.400;2023-05-29T06:43:12;16.10;57.30
9057;DHT22;4563;54.756;9.400;2023-05-29T06:45:39;16.10;57.20
9057;DHT22;4563;54.756;9.400;2023-05-29T06:48:07;16.20;57.10
9057;DHT22;4563;54.756;9.400;2023-05-29T06:50:34;16.30;57.10
9057;DHT22;4563;54.756;9.400;2023-05-29T06:53:02;16.30;57.10
9057;DHT22;4563;54.756;9.400;2023-05-29T06:55:29;16.40;57.10
9057;DHT22;4563;54.756;9.400;2023-05-29T06:57:56;16.50;57.00
9057;DHT22;4563;54.756;9.400;2023-05-29T07:00:23;16.50;57.00
9057;DHT22;4563;54.756;9.400;2023-05-29T07:02:50;16.50;57.00
9057;DHT22;4563;54.756;9.400;2023-05-29T07:05:17;16.60;56.90
9057;DHT22;4563;54.756;9.400;2023-05-29T07:07:44;16.60;56.70
9057;DHT22;4563;54.756;9.400;2023-05-29T07:10:12;16.70;56.70
9057;DHT22;4563;54.756;9.400;2023-05-29T07:12:39;16.70;56.50
9057;DHT22;4563;54.756;9.400;2023-05-29T07:15:06;16.70;56.40
9057;DHT22;4563;54.756;9.400;2023-05-29T07:17:33;16.80;56.50
9057;DHT22;4563;54.756;9.400;2023-05-29T07:20:00;16.80;56.20
9057;DHT22;4563;54.756;9.400;2023-05-29T07:22:33;16.80;56.00
9057;DHT22;4563;54.756;9.400;2023-05-29T07:25:04;16.90;56.00
9057;DHT22;4563;54.756;9.400;2023-05-29T07:27:33;16.90;55.90
9057;DHT22;4563;54.756;9.400;2023-05-29T07:30:01;17.00;56.00
9057;DHT22;4563;54.756;9.400;2023-05-29T07:32:32;17.10;56.00
9057;DHT22;4563;54.756;9.400;2023-05-29T07:38:27;17.30;56.50
9057;DHT22;4563;54.756;9.400;2023-05-29T07:40:54;17.40;56.40
9057;DHT22;4563;54.756;9.400;2023-05-29T07:43:22;17.50;56.20
9057;DHT22;4563;54.756;9.400;2023-05-29T07:45:49;17.70;56.20
9057;DHT22;4563;54.756;9.400;2023-05-29T07:48:16;17.90;56.20
9057;DHT22;4563;54.756;9.400;2023-05-29T07:50:44;18.10;56.20
9057;DHT22;4563;54.756;9.400;2023-05-29T07:53:12;18.20;56.30
9057;DHT22;4563;54.756;9.400;2023-05-29T07:55:38;18.50;56.40
9057;DHT22;4563;54.756;9.400;2023-05-29T07:58:05;18.60;56.50
9057;DHT22;4563;54.756;9.400;2023-05-29T08:00:34;18.80;56.10
9057;DHT22;4563;54.756;9.400;2023-05-29T08:05:41;19.30;56.20
9057;DHT22;4563;54.756;9.400;2023-05-29T08:08:17;19.60;56.10
9057;DHT22;4563;54.756;9.400;2023-05-29T08:11:04;19.90;57.30
9057;DHT22;4563;54.756;9.400;2023-05-29T08:13:51;20.10;58.20
9057;DHT22;4563;54.756;9.400;2023-05-29T08:16:19;20.50;58.10
9057;DHT22;4563;54.756;9.400;2023-05-29T08:18:52;20.70;56.10
9057;DHT22;4563;54.756;9.400;2023-05-29T08:21:19;21.00;56.70
9057;DHT22;4563;54.756;9.400;2023-05-29T08:23:51;21.20;54.90
9057;DHT22;4563;54.756;9.400;2023-05-29T08:32:47;22.10;59.00
9057;DHT22;4563;54.756;9.400;2023-05-29T08:35:16;22.40;54.90
9057;DHT22;4563;54.756;9.400;2023-05-29T08:37:43;22.60;53.90
9057;DHT22;4563;54.756;9.400;2023-05-29T08:40:11;22.90;53.30
9057;DHT22;4563;54.756;9.400;2023-05-29T08:42:45;23.10;53.10
9057;DHT22;4563;54.756;9.400;2023-05-29T08:45:14;23.40;56.00
9057;DHT22;4563;54.756;9.400;2023-05-29T08:47:41;23.60;52.70
9057;DHT22;4563;54.756;9.400;2023-05-29T08:50:09;23.90;52.10
9057;DHT22;4563;54.756;9.400;2023-05-29T08:52:37;24.10;52.40
9057;DHT22;4563;54.756;9.400;2023-05-29T08:55:06;24.40;51.90
9057;DHT22;4563;54.756;9.400;2023-05-29T08:57:34;24.60;51.40
9057;DHT22;4563;54.756;9.400;2023-05-29T09:00:04;24.80;51.20
9057;DHT22;4563;54.756;9.400;2023-05-29T09:02:35;25.00;50.80
9057;DHT22;4563;54.756;9.400;2023-05-29T09:05:02;25.30;50.80
9057;DHT22;4563;54.756;9.400;2023-05-29T09:07:31;25.50;50.40
9057;DHT22;4563;54.756;9.400;2023-05-29T09:09:58;25.70;50.50
9057;DHT22;4563;54.756;9.400;2023-05-29T09:12:26;25.90;50.10
9057;DHT22;4563;54.756;9.400;2023-05-29T09:14:52;26.10;49.60
9057;DHT22;4563;54.756;9.400;2023-05-29T09:17:19;26.30;49.50
9057;DHT22;4563;54.756;9.400;2023-05-29T09:19:48;26.60;49.10
9057;DHT22;4563;54.756;9.400;2023-05-29T09:22:15;26.80;49.00
9057;DHT22;4563;54.756;9.400;2023-05-29T09:24:46;27.00;48.50
9057;DHT22;4563;54.756;9.400;2023-05-29T09:27:14;27.20;51.50
9057;DHT22;4563;54.756;9.400;2023-05-29T09:29:41;27.40;48.40
9057;DHT22;4563;54.756;9.400;2023-05-29T09:32:09;27.60;47.70
9057;DHT22;4563;54.756;9.400;2023-05-29T09:34:36;27.80;47.20
9057;DHT22;4563;54.756;9.400;2023-05-29T09:37:04;28.00;46.70
9057;DHT22;4563;54.756;9.400;2023-05-29T09:39:45;28.20;46.50
9057;DHT22;4563;54.756;9.400;2023-05-29T09:42:12;28.40;46.00
9057;DHT22;4563;54.756;9.400;2023-05-29T09:44:40;28.60;45.90
9057;DHT22;4563;54.756;9.400;2023-05-29T09:47:07;28.80;45.60
9057;DHT22;4563;54.756;9.400;2023-05-29T09:49:34;29.00;45.40
9057;DHT22;4563;54.756;9.400;2023-05-29T09:52:04;29.20;44.90
9057;DHT22;4563;54.756;9.400;2023-05-29T09:54:35;29.40;44.40
9057;DHT22;4563;54.756;9.400;2023-05-29T09:57:05;29.50;43.90
9057;DHT22;4563;54.756;9.400;2023-05-29T09:59:33;29.70;44.80
9057;DHT22;4563;54.756;9.400;2023-05-29T10:02:02;29.90;43.70
9057;DHT22;4563;54.756;9.400;2023-05-29T10:04:30;30.00;43.60
9057;DHT22;4563;54.756;9.400;2023-05-29T10:07:00;30.10;43.40
9057;DHT22;4563;54.756;9.400;2023-05-29T10:09:32;30.20;43.80
9057;DHT22;4563;54.756;9.400;2023-05-29T10:12:01;30.40;43.10
9057;DHT22;4563;54.756;9.400;2023-05-29T10:14:31;30.60;42.80
9057;DHT22;4563;54.756;9.400;2023-05-29T10:17:02;30.80;42.90
9057;DHT22;4563;54.756;9.400;2023-05-29T10:19:32;30.90;43.10
9057;DHT22;4563;54.756;9.400;2023-05-29T10:22:01;31.00;42.10
9057;DHT22;4563;54.756;9.400;2023-05-29T10:24:28;31.20;41.70
9057;DHT22;4563;54.756;9.400;2023-05-29T10:26:58;31.30;41.10
9057;DHT22;4563;54.756;9.400;2023-05-29T10:29:28;31.40;40.90
9057;DHT22;4563;54.756;9.400;2023-05-29T10:32:07;31.60;41.00
9057;DHT22;4563;54.756;9.400;2023-05-29T10:34:41;31.70;46.80
9057;DHT22;4563;54.756;9.400;2023-05-29T10:37:21;31.90;43.00
9057;DHT22;4563;54.756;9.400;2023-05-29T10:39:51;32.00;45.60
9057;DHT22;4563;54.756;9.400;2023-05-29T10:42:42;32.20;40.00
9057;DHT22;4563;54.756;9.400;2023-05-29T10:45:09;32.40;49.30
9057;DHT22;4563;54.756;9.400;2023-05-29T10:47:38;32.50;39.20
9057;DHT22;4563;54.756;9.400;2023-05-29T10:50:06;32.60;38.90
9057;DHT22;4563;54.756;9.400;2023-05-29T10:52:34;32.80;38.60
9057;DHT22;4563;54.756;9.400;2023-05-29T10:55:01;32.90;38.40
9057;DHT22;4563;54.756;9.400;2023-05-29T10:57:29;33.00;38.90
9057;DHT22;4563;54.756;9.400;2023-05-29T11:00:06;33.20;38.60
9057;DHT22;4563;54.756;9.400;2023-05-29T11:02:40;33.40;41.00
9057;DHT22;4563;54.756;9.400;2023-05-29T11:05:21;33.50;37.70
9057;DHT22;4563;54.756;9.400;2023-05-29T11:07:59;33.60;44.90
9057;DHT22;4563;54.756;9.400;2023-05-29T11:10:56;33.80;43.50
9057;DHT22;4563;54.756;9.400;2023-05-29T11:13:25;33.90;47.20
9057;DHT22;4563;54.756;9.400;2023-05-29T11:16:19;33.90;37.00
9057;DHT22;4563;54.756;9.400;2023-05-29T11:18:48;34.00;49.30
9057;DHT22;4563;54.756;9.400;2023-05-29T11:21:28;34.10;37.30
9057;DHT22;4563;54.756;9.400;2023-05-29T11:23:57;34.30;42.80
9057;DHT22;4563;54.756;9.400;2023-05-29T11:26:29;34.30;36.90
9057;DHT22;4563;54.756;9.400;2023-05-29T11:28:58;34.30;36.30
9057;DHT22;4563;54.756;9.400;2023-05-29T11:31:27;34.40;36.80
9057;DHT22;4563;54.756;9.400;2023-05-29T11:33:59;34.40;36.50
9057;DHT22;4563;54.756;9.400;2023-05-29T11:36:28;34.40;37.40
9057;DHT22;4563;54.756;9.400;2023-05-29T11:38:56;34.30;36.50
9057;DHT22;4563;54.756;9.400;2023-05-29T11:41:23;34.20;36.10
9057;DHT22;4563;54.756;9.400;2023-05-29T11:43:58;34.10;36.20
9057;DHT22;4563;54.756;9.400;2023-05-29T11:46:25;34.00;40.40
9057;DHT22;4563;54.756;9.400;2023-05-29T11:48:53;33.90;36.00
9057;DHT22;4563;54.756;9.400;2023-05-29T11:51:21;33.80;35.90
9057;DHT22;4563;54.756;9.400;2023-05-29T11:53:49;33.70;35.90
9057;DHT22;4563;54.756;9.400;2023-05-29T11:56:19;33.60;36.10
9057;DHT22;4563;54.756;9.400;2023-05-29T11:58:46;33.40;35.70
9057;DHT22;4563;54.756;9.400;2023-05-29T12:01:16;33.30;36.10
9057;DHT22;4563;54.756;9.400;2023-05-29T12:03:44;33.20;36.50
9057;DHT22;4563;54.756;9.400;2023-05-29T12:06:11;33.10;35.90
9057;DHT22;4563;54.756;9.400;2023-05-29T12:08:40;32.90;36.00
9057;DHT22;4563;54.756;9.400;2023-05-29T12:11:07;32.80;36.00
9057;DHT22;4563;54.756;9.400;2023-05-29T12:13:33;32.60;35.60
9057;DHT22;4563;54.756;9.400;2023-05-29T12:16:03;32.50;36.30
9057;DHT22;4563;54.756;9.400;2023-05-29T12:18:30;32.30;36.00
9057;DHT22;4563;54.756;9.400;2023-05-29T12:20:58;32.20;35.60
9057;DHT22;4563;54.756;9.400;2023-05-29T12:23:25;32.00;35.70
9057;DHT22;4563;54.756;9.400;2023-05-29T12:25:54;31.90;36.10
9057;DHT22;4563;54.756;9.400;2023-05-29T12:28:21;31.80;35.60
9057;DHT22;4563;54.756;9.400;2023-05-29T12:30:48;31.60;35.70
9057;DHT22;4563;54.756;9.400;2023-05-29T12:33:25;31.40;35.80
9057;DHT22;4563;54.756;9.400;2023-05-29T12:35:53;31.30;38.60
9057;DHT22;4563;54.756;9.400;2023-05-29T12:38:22;31.20;36.60
9057;DHT22;4563;54.756;9.400;2023-05-29T12:40:49;31.00;35.60
9057;DHT22;4563;54.756;9.400;2023-05-29T12:43:19;30.90;35.70
9057;DHT22;4563;54.756;9.400;2023-05-29T12:45:46;30.80;35.40
9057;DHT22;4563;54.756;9.400;2023-05-29T12:48:13;30.60;35.70
9057;DHT22;4563;54.756;9.400;2023-05-29T12:50:40;30.50;35.60
9057;DHT22;4563;54.756;9.400;2023-05-29T12:53:09;30.40;35.40
9057;DHT22;4563;54.756;9.400;2023-05-29T12:55:38;30.20;35.80
9057;DHT22;4563;54.756;9.400;2023-05-29T12:58:05;30.10;35.90
9057;DHT22;4563;54.756;9.400;2023-05-29T13:00:34;30.00;36.60
9057;DHT22;4563;54.756;9.400;2023-05-29T13:03:01;29.80;36.90
9057;DHT22;4563;54.756;9.400;2023-05-29T13:05:28;29.70;36.80
9057;DHT22;4563;54.756;9.400;2023-05-29T13:07:56;29.60;37.20
9057;DHT22;4563;54.756;9.400;2023-05-29T13:10:27;29.50;37.20
9057;DHT22;4563;54.756;9.400;2023-05-29T13:12:54;29.30;37.60
9057;DHT22;4563;54.756;9.400;2023-05-29T13:15:26;29.20;37.30
9057;DHT22;4563;54.756;9.400;2023-05-29T13:17:57;29.00;37.30
9057;DHT22;4563;54.756;9.400;2023-05-29T13:20:24;28.90;37.60
9057;DHT22;4563;54.756;9.400;2023-05-29T13:22:50;28.70;37.50
9057;DHT22;4563;54.756;9.400;2023-05-29T13:25:19;28.50;37.50
9057;DHT22;4563;54.756;9.400;2023-05-29T13:27:47;28.40;37.60
9057;DHT22;4563;54.756;9.400;2023-05-29T13:30:15;28.30;37.70
9057;DHT22;4563;54.756;9.400;2023-05-29T13:32:43;28.10;37.90
9057;DHT22;4563;54.756;9.400;2023-05-29T13:35:11;28.00;38.20
9057;DHT22;4563;54.756;9.400;2023-05-29T13:37:38;27.80;38.40
9057;DHT22;4563;54.756;9.400;2023-05-29T13:40:07;27.70;38.20
9057;DHT22;4563;54.756;9.400;2023-05-29T13:42:35;27.50;38.40
9057;DHT22;4563;54.756;9.400;2023-05-29T13:45:02;27.40;38.40
9057;DHT22;4563;54.756;9.400;2023-05-29T13:47:29;27.30;38.40
9057;DHT22;4563;54.756;9.400;2023-05-29T13:49:57;27.20;38.20
9057;DHT22;4563;54.756;9.400;2023-05-29T13:52:26;27.00;38.60
9057;DHT22;4563;54.756;9.400;2023-05-29T13:54:55;26.90;38.60
9057;DHT22;4563;54.756;9.400;2023-05-29T13:57:23;26.80;38.90
9057;DHT22;4563;54.756;9.400;2023-05-29T13:59:50;26.70;39.20
9057;DHT22;4563;54.756;9.400;2023-05-29T14:02:17;26.50;39.00
9057;DHT22;4563;54.756;9.400;2023-05-29T14:04:43;26.40;38.80
9057;DHT22;4563;54.756;9.400;2023-05-29T14:07:11;26.30;39.10
9057;DHT22;4563;54.756;9.400;2023-05-29T14:09:39;26.20;39.20
9057;DHT22;4563;54.756;9.400;2023-05-29T14:12:06;26.00;39.40
9057;DHT22;4563;54.756;9.400;2023-05-29T14:14:33;25.90;39.60
9057;DHT22;4563;54.756;9.400;2023-05-29T14:17:00;25.80;39.50
9057;DHT22;4563;54.756;9.400;2023-05-29T14:19:28;25.70;40.20
9057;DHT22;4563;54.756;9.400;2023-05-29T14:21:54;25.60;39.70
9057;DHT22;4563;54.756;9.400;2023-05-29T14:24:21;25.50;40.00
9057;DHT22;4563;54.756;9.400;2023-05-29T14:26:51;25.40;40.00
9057;DHT22;4563;54.756;9.400;2023-05-29T14:29:18;25.40;40.00
9057;DHT22;4563;54.756;9.400;2023-05-29T14:31:45;25.30;40.50
9057;DHT22;4563;54.756;9.400;2023-05-29T14:34:12;25.20;40.30
9057;DHT22;4563;54.756;9.400;2023-05-29T14:36:39;25.10;40.20
9057;DHT22;4563;54.756;9.400;2023-05-29T14:39:07;25.00;40.50
9057;DHT22;4563;54.756;9.400;2023-05-29T14:41:34;24.90;40.20
9057;DHT22;4563;54.756;9.400;2023-05-29T14:44:02;24.90;40.20
9057;DHT22;4563;54.756;9.400;2023-05-29T14:46:29;24.90;40.90
9057;DHT22;4563;54.756;9.400;2023-05-29T14:48:58;24.80;40.00
9057;DHT22;4563;54.756;9.400;2023-05-29T14:51:25;24.70;40.30
9057;DHT22;4563;54.756;9.400;2023-05-29T14:53:52;24.60;40.30
9057;DHT22;4563;54.756;9.400;2023-05-29T14:56:19;24.60;41.00
9057;DHT22;4563;54.756;9.400;2023-05-29T14:58:45;24.50;40.20
9057;DHT22;4563;54.756;9.400;2023-05-29T15:01:15;24.50;40.20
9057;DHT22;4563;54.756;9.400;2023-05-29T15:03:41;24.40;40.10
9057;DHT22;4563;54.756;9.400;2023-05-29T15:06:09;24.30;40.40
9057;DHT22;4563;54.756;9.400;2023-05-29T15:08:37;24.30;40.50
9057;DHT22;4563;54.756;9.400;2023-05-29T15:11:05;24.20;40.70
9057;DHT22;4563;54.756;9.400;2023-05-29T15:13:33;24.20;40.80
9057;DHT22;4563;54.756;9.400;2023-05-29T15:16:00;24.10;40.80
9057;DHT22;4563;54.756;9.400;2023-05-29T15:18:29;24.00;40.70
9057;DHT22;4563;54.756;9.400;2023-05-29T15:20:56;24.10;40.50
9057;DHT22;4563;54.756;9.400;2023-05-29T15:23:24;24.00;40.80
9057;DHT22;4563;54.756;9.400;2023-05-29T15:25:51;23.90;40.70
9057;DHT22;4563;54.756;9.400;2023-05-29T15:28:18;23.90;40.70
9057;DHT22;4563;54.756;9.400;2023-05-29T15:30:45;23.80;40.90
9057;DHT22;4563;54.756;9.400;2023-05-29T15:33:12;23.80;40.60
9057;DHT22;4563;54.756;9.400;2023-05-29T15:35:41;23.80;40.60
9057;DHT22;4563;54.756;9.400;2023-05-29T15:38:08;23.70;40.90
9057;DHT22;4563;54.756;9.400;2023-05-29T15:40:35;23.60;40.40
9057;DHT22;4563;54.756;9.400;2023-05-29T15:43:02;23.60;40.20
9057;DHT22;4563;54.756;9.400;2023-05-29T15:45:29;23.60;40.40
9057;DHT22;4563;54.756;9.400;2023-05-29T15:47:56;23.50;40.40
9057;DHT22;4563;54.756;9.400;2023-05-29T15:50:23;23.50;40.30
9057;DHT22;4563;54.756;9.400;2023-05-29T15:52:51;23.40;40.20
9057;DHT22;4563;54.756;9.400;2023-05-29T15:55:18;23.40;40.40
9057;DHT22;4563;54.756;9.400;2023-05-29T15:57:45;23.30;40.40
9057;DHT22;4563;54.756;9.400;2023-05-29T16:00:14;23.30;41.00
9057;DHT22;4563;54.756;9.400;2023-05-29T16:02:41;23.30;40.40
9057;DHT22;4563;54.756;9.400;2023-05-29T16:05:09;23.20;40.40
9057;DHT22;4563;54.756;9.400;2023-05-29T16:07:36;23.20;40.30
9057;DHT22;4563;54.756;9.400;2023-05-29T16:10:08;23.10;40.80
9057;DHT22;4563;54.756;9.400;2023-05-29T16:12:36;23.10;40.50
9057;DHT22;4563;54.756;9.400;2023-05-29T16:15:03;23.10;40.90
9057;DHT22;4563;54.756;9.400;2023-05-29T16:17:30;23.00;40.90
9057;DHT22;4563;54.756;9.400;2023-05-29T16:19:57;23.00;40.90
9057;DHT22;4563;54.756;9.400;2023-05-29T16:22:24;22.90;41.10